createdAt,value
2022-12-22T00:02:39.035Z,33.10
2022-12-22T00:05:36.070Z,36.50
2022-12-22T00:08:23.510Z,42.90
2022-12-22T00:11:11.850Z,36.20
2022-12-22T00:14:03.675Z,26.40
2022-12-22T00:16:56.025Z,30.50
2022-12-22T00:19:42.759Z,26.30
2022-12-22T00:22:39.696Z,26.60
2022-12-22T00:25:28.363Z,22.10
2022-12-22T00:31:03.182Z,18.70
2022-12-22T00:33:50.342Z,20.60
2022-12-22T00:36:42.443Z,38.80
2022-12-22T00:39:32.782Z,33.40
2022-12-22T00:42:19.369Z,35.40
2022-12-22T00:45:06.288Z,31.10
2022-12-22T00:47:53.506Z,25.80
2022-12-22T00:50:50.121Z,27.70
2022-12-22T00:53:37.208Z,23.00
2022-12-22T00:56:25.144Z,20.20
2022-12-22T00:59:15.184Z,20.80
2022-12-22T01:02:01.807Z,19.80
2022-12-22T01:04:49.179Z,21.20
2022-12-22T01:07:41.016Z,19.40
2022-12-22T01:10:32.409Z,20.90
2022-12-22T01:13:19.747Z,21.00
2022-12-22T01:16:06.408Z,22.20
2022-12-22T01:18:53.259Z,24.00
2022-12-22T01:21:39.861Z,28.80
2022-12-22T01:24:31.392Z,31.40
2022-12-22T01:27:18.654Z,29.60
2022-12-22T01:30:05.541Z,27.90
2022-12-22T01:32:51.950Z,43.60
2022-12-22T01:35:41.529Z,32.00
2022-12-22T01:38:28.600Z,36.80
2022-12-22T01:41:17.393Z,34.20
2022-12-22T01:44:03.997Z,40.90
2022-12-22T01:46:56.220Z,31.40
2022-12-22T01:49:48.846Z,39.60
2022-12-22T01:52:39.469Z,40.30
2022-12-22T01:55:30.864Z,38.30
2022-12-22T01:58:17.443Z,45.70
2022-12-22T02:01:05.771Z,39.40
2022-12-22T02:03:53.436Z,38.20
2022-12-22T02:07:12.660Z,35.80
2022-12-22T02:10:22.518Z,43.70
2022-12-22T02:13:23.791Z,48.40
2022-12-22T02:16:20.158Z,51.50
2022-12-22T02:19:16.392Z,42.40
2022-12-22T02:22:18.568Z,40.00
2022-12-22T02:25:12.099Z,37.70
2022-12-22T02:28:00.096Z,48.40
2022-12-22T02:30:47.557Z,40.50
2022-12-22T02:33:34.600Z,45.00
2022-12-22T02:36:52.101Z,47.70
2022-12-22T02:40:11.812Z,45.70
2022-12-22T02:43:13.353Z,42.60
2022-12-22T02:46:28.523Z,38.70
2022-12-22T02:49:21.049Z,54.80
2022-12-22T02:52:20.132Z,44.50
2022-12-22T02:57:52.916Z,49.90
2022-12-22T03:00:40.111Z,52.40
2022-12-22T03:03:27.036Z,46.60
2022-12-22T03:06:13.849Z,47.00
2022-12-22T03:09:00.701Z,48.90
2022-12-22T03:11:47.103Z,44.30
2022-12-22T03:14:33.719Z,47.40
2022-12-22T03:17:20.368Z,56.40
2022-12-22T03:20:06.843Z,45.30
2022-12-22T03:22:53.513Z,50.80
2022-12-22T03:25:40.393Z,49.60
2022-12-22T03:28:09.250Z,53.40
2022-12-22T03:30:38.231Z,53.10
2022-12-22T03:33:06.612Z,48.90
2022-12-22T03:35:34.682Z,45.30
2022-12-22T03:38:03.781Z,43.80
2022-12-22T03:43:18.693Z,47.40
2022-12-22T03:46:05.574Z,48.70
2022-12-22T03:48:33.570Z,43.70
2022-12-22T03:51:01.829Z,44.60
2022-12-22T03:53:30.211Z,45.30
2022-12-22T03:56:01.296Z,38.80
2022-12-22T03:58:33.859Z,49.90
2022-12-22T04:01:08.189Z,43.70
2022-12-22T04:03:36.205Z,50.50
2022-12-22T04:06:04.495Z,50.70
2022-12-22T04:08:32.966Z,54.50
2022-12-22T04:11:20.084Z,45.90
2022-12-22T04:13:48.050Z,58.00
2022-12-22T04:16:16.365Z,66.90
2022-12-22T04:18:44.356Z,66.80
2022-12-22T04:21:12.576Z,59.90
2022-12-22T04:23:41.216Z,53.90
2022-12-22T04:26:09.686Z,53.30
2022-12-22T04:28:37.648Z,49.60
2022-12-22T04:31:05.701Z,43.80
2022-12-22T04:33:33.726Z,46.80
2022-12-22T04:36:02.140Z,41.20
2022-12-22T04:38:30.318Z,50.40
2022-12-22T04:40:58.353Z,63.30
2022-12-22T04:43:26.659Z,49.20
2022-12-22T04:45:55.771Z,53.70
2022-12-22T04:48:25.839Z,51.80
2022-12-22T04:50:56.171Z,56.20
2022-12-22T04:53:26.197Z,55.50
2022-12-22T04:56:01.044Z,40.00
2022-12-22T04:58:29.883Z,62.90
2022-12-22T05:01:07.584Z,67.00
2022-12-22T05:03:35.812Z,61.40
2022-12-22T05:06:04.329Z,69.90
2022-12-22T05:08:32.399Z,49.80
2022-12-22T05:11:02.894Z,54.00
2022-12-22T05:13:32.004Z,54.40
2022-12-22T05:16:07.867Z,63.00
2022-12-22T05:18:37.650Z,57.40
2022-12-22T05:21:18.119Z,60.90
2022-12-22T05:23:46.699Z,61.80
2022-12-22T05:26:17.277Z,66.20
2022-12-22T05:28:46.801Z,70.20
2022-12-22T05:31:21.623Z,74.20
2022-12-22T05:33:49.999Z,68.70
2022-12-22T05:36:19.094Z,65.80
2022-12-22T05:38:47.181Z,69.80
2022-12-22T05:41:15.353Z,67.80
2022-12-22T05:43:43.325Z,73.30
2022-12-22T05:46:12.607Z,80.80
2022-12-22T05:48:40.834Z,76.50
2022-12-22T05:51:09.691Z,75.40
2022-12-22T05:53:38.370Z,76.70
2022-12-22T05:56:07.939Z,78.70
2022-12-22T05:58:38.982Z,68.80
2022-12-22T06:01:07.335Z,69.60
2022-12-22T06:03:35.476Z,69.00
2022-12-22T06:06:03.764Z,69.80
2022-12-22T06:08:31.925Z,65.90
2022-12-22T06:11:00.299Z,63.10
2022-12-22T06:13:28.395Z,66.90
2022-12-22T06:15:56.838Z,74.80
2022-12-22T06:18:25.458Z,60.20
2022-12-22T06:20:53.841Z,66.50
2022-12-22T06:23:22.708Z,66.20
2022-12-22T06:25:59.591Z,70.60
2022-12-22T06:28:28.692Z,68.60
2022-12-22T06:30:56.960Z,71.40
2022-12-22T06:33:25.340Z,68.50
2022-12-22T06:35:58.699Z,72.00
2022-12-22T06:38:28.358Z,74.20
2022-12-22T06:40:56.989Z,66.30
2022-12-22T06:43:25.917Z,70.40
2022-12-22T06:45:54.071Z,69.30
2022-12-22T06:48:22.339Z,67.60
2022-12-22T06:50:50.855Z,61.80
2022-12-22T06:53:19.031Z,69.00
2022-12-22T06:55:47.322Z,66.20
2022-12-22T06:58:15.582Z,67.50
2022-12-22T07:00:45.458Z,67.40
2022-12-22T07:03:13.813Z,56.80
2022-12-22T07:05:42.464Z,67.30
2022-12-22T07:08:10.540Z,68.20
2022-12-22T07:10:57.232Z,66.20
2022-12-22T07:13:34.255Z,63.80
2022-12-22T07:16:04.976Z,66.60
2022-12-22T07:18:35.596Z,67.00
2022-12-22T07:21:05.705Z,72.20
2022-12-22T07:23:34.185Z,61.10
2022-12-22T07:26:02.865Z,64.00
2022-12-22T07:28:34.207Z,58.60
2022-12-22T07:31:03.608Z,64.90
2022-12-22T07:36:06.282Z,59.10
2022-12-22T07:38:36.135Z,57.90
2022-12-22T07:41:25.701Z,68.00
2022-12-22T07:43:54.521Z,62.40
2022-12-22T07:46:24.711Z,64.40
2022-12-22T07:49:13.203Z,66.10
2022-12-22T07:51:43.455Z,59.20
2022-12-22T07:54:14.148Z,52.90
2022-12-22T07:56:43.713Z,58.90
2022-12-22T07:59:12.837Z,54.90
2022-12-22T08:01:41.838Z,53.50
2022-12-22T08:04:11.386Z,63.70
2022-12-22T08:06:40.317Z,52.70
2022-12-22T08:09:09.296Z,56.00
2022-12-22T08:11:37.393Z,61.30
2022-12-22T08:14:05.772Z,55.50
2022-12-22T08:16:34.098Z,52.70
2022-12-22T08:19:04.275Z,54.90
2022-12-22T08:21:32.814Z,55.80
2022-12-22T08:24:01.062Z,55.20
2022-12-22T08:26:40.705Z,58.80
2022-12-22T08:29:20.213Z,57.30
2022-12-22T08:31:48.342Z,66.00
2022-12-22T08:34:16.772Z,63.70
2022-12-22T08:36:49.389Z,70.40
2022-12-22T08:39:20.708Z,63.80
2022-12-22T08:41:52.126Z,67.40
2022-12-22T08:44:24.252Z,67.70
2022-12-22T08:46:54.270Z,67.50
2022-12-22T08:49:23.017Z,61.70
2022-12-22T08:51:51.897Z,66.10
2022-12-22T08:54:20.612Z,64.60
2022-12-22T08:56:49.957Z,63.10
2022-12-22T08:59:17.945Z,55.90
2022-12-22T09:01:50.931Z,63.10
2022-12-22T09:04:23.216Z,58.70
2022-12-22T09:06:53.612Z,62.40
2022-12-22T09:09:21.719Z,59.70
2022-12-22T09:11:50.348Z,61.20
2022-12-22T09:14:18.572Z,63.60
2022-12-22T09:16:46.724Z,57.60
2022-12-22T09:19:14.719Z,61.70
2022-12-22T09:21:43.411Z,55.50
2022-12-22T09:24:11.640Z,55.90
2022-12-22T09:26:40.284Z,58.10
2022-12-22T09:29:08.546Z,59.10
2022-12-22T09:31:36.969Z,59.70
2022-12-22T09:34:04.956Z,58.40
2022-12-22T09:36:34.089Z,58.90
2022-12-22T09:39:06.773Z,58.60
2022-12-22T09:41:58.019Z,58.50
2022-12-22T09:44:31.322Z,64.90
2022-12-22T09:47:03.100Z,59.50
2022-12-22T09:49:31.424Z,57.70
2022-12-22T09:52:02.628Z,58.80
2022-12-22T09:54:31.151Z,60.50
2022-12-22T09:56:59.421Z,61.40
2022-12-22T09:59:28.851Z,61.90
2022-12-22T10:02:34.486Z,57.60
2022-12-22T10:05:26.870Z,60.60
2022-12-22T10:08:02.071Z,61.10
2022-12-22T10:10:31.660Z,58.30
2022-12-22T10:13:03.112Z,62.80
2022-12-22T10:15:40.166Z,65.00
2022-12-22T10:18:10.832Z,62.90
2022-12-22T10:20:39.999Z,57.40
2022-12-22T10:23:23.682Z,45.40
2022-12-22T10:26:27.611Z,57.90
2022-12-22T10:28:51.730Z,56.60
2022-12-22T10:31:27.500Z,64.60
2022-12-22T10:34:09.513Z,61.80
2022-12-22T10:36:39.014Z,69.60
2022-12-22T10:39:11.387Z,65.90
2022-12-22T10:41:47.316Z,59.30
2022-12-22T10:44:26.182Z,60.00
2022-12-22T10:47:17.136Z,58.30
2022-12-22T10:52:29.481Z,69.30
2022-12-22T10:55:22.454Z,64.30
2022-12-22T10:57:50.752Z,56.60
2022-12-22T11:00:27.114Z,66.50
2022-12-22T11:03:00.933Z,62.00
2022-12-22T11:05:29.925Z,59.60
2022-12-22T11:08:13.237Z,59.60
2022-12-22T11:11:07.927Z,54.50
2022-12-22T11:13:55.581Z,58.30
2022-12-22T11:16:46.532Z,48.80
2022-12-22T11:19:55.640Z,50.90
2022-12-22T11:25:14.464Z,49.80
2022-12-22T11:28:19.898Z,55.20
2022-12-22T11:31:20.447Z,58.90
2022-12-22T11:34:28.595Z,59.90
2022-12-22T11:37:15.246Z,54.70
2022-12-22T11:39:57.442Z,55.70
2022-12-22T11:42:58.317Z,54.80
2022-12-22T11:45:54.396Z,61.00
2022-12-22T11:48:32.212Z,57.00
2022-12-22T11:51:36.131Z,56.90
2022-12-22T11:54:11.967Z,52.80
2022-12-22T11:56:44.548Z,53.00
2022-12-22T11:59:24.411Z,56.80
2022-12-22T12:02:11.456Z,52.40
2022-12-22T12:05:06.945Z,50.90
2022-12-22T12:07:41.224Z,52.70
2022-12-22T12:10:56.227Z,59.60
2022-12-22T12:13:37.654Z,45.90
2022-12-22T12:16:24.003Z,44.30
2022-12-22T12:19:23.111Z,46.30
2022-12-22T12:22:00.666Z,53.20
2022-12-22T12:25:02.015Z,54.20
2022-12-22T12:27:51.146Z,57.30
2022-12-22T12:30:38.071Z,54.20
2022-12-22T12:33:16.050Z,53.80
2022-12-22T12:36:03.264Z,56.70
2022-12-22T12:39:07.506Z,49.50
2022-12-22T12:41:36.583Z,48.10
2022-12-22T12:44:06.146Z,52.70
2022-12-22T12:46:55.375Z,47.80
2022-12-22T12:49:36.213Z,55.60
2022-12-22T12:52:11.779Z,56.10
2022-12-22T12:54:43.693Z,53.30
2022-12-22T12:57:31.159Z,53.80
2022-12-22T13:00:00.813Z,48.70
2022-12-22T13:02:32.232Z,56.30
2022-12-22T13:05:13.660Z,49.80
2022-12-22T13:08:11.617Z,54.90
2022-12-22T13:10:49.689Z,65.00
2022-12-22T13:13:27.078Z,53.30
2022-12-22T13:16:10.337Z,56.10
2022-12-22T13:18:47.457Z,54.50
2022-12-22T13:24:25.213Z,52.90
2022-12-22T13:26:56.206Z,60.90
2022-12-22T13:29:28.225Z,56.60
2022-12-22T13:32:02.859Z,61.00
2022-12-22T13:35:30.377Z,57.10
2022-12-22T13:37:47.529Z,57.70
2022-12-22T13:40:22.445Z,57.60
2022-12-22T13:42:54.349Z,54.60
2022-12-22T13:45:28.526Z,49.10
2022-12-22T13:47:56.904Z,54.20
2022-12-22T13:50:36.665Z,59.70
2022-12-22T13:53:08.269Z,59.40
2022-12-22T13:55:37.113Z,57.90
2022-12-22T13:58:09.466Z,66.80
2022-12-22T14:00:37.670Z,54.10
2022-12-22T14:03:41.690Z,58.30
2022-12-22T14:06:34.403Z,51.90
2022-12-22T14:09:25.872Z,53.50
2022-12-22T14:12:03.874Z,58.60
2022-12-22T14:14:38.879Z,61.00
2022-12-22T14:17:22.316Z,59.70
2022-12-22T14:19:52.733Z,58.10
2022-12-22T14:22:43.843Z,58.60
2022-12-22T14:25:32.717Z,65.30
2022-12-22T14:28:01.388Z,64.50
2022-12-22T14:30:38.795Z,61.10
2022-12-22T14:33:28.588Z,58.60
2022-12-22T14:36:24.086Z,59.60
2022-12-22T14:38:52.441Z,58.00
2022-12-22T14:41:44.346Z,61.80
2022-12-22T14:44:15.408Z,57.80
2022-12-22T14:46:45.586Z,59.80
2022-12-22T14:49:19.845Z,50.20
2022-12-22T14:52:04.036Z,60.30
2022-12-22T14:54:32.484Z,51.10
2022-12-22T14:57:15.547Z,50.10
2022-12-22T15:00:05.254Z,57.50
2022-12-22T15:02:39.641Z,44.70
2022-12-22T15:05:24.571Z,49.80
2022-12-22T15:08:10.742Z,55.00
2022-12-22T15:10:42.767Z,52.00
2022-12-22T15:13:19.013Z,55.80
2022-12-22T15:15:47.286Z,52.00
2022-12-22T15:18:15.985Z,54.00
2022-12-22T15:20:44.274Z,51.10
2022-12-22T15:23:14.853Z,55.10
2022-12-22T15:25:43.454Z,51.10
2022-12-22T15:28:11.486Z,52.60
2022-12-22T15:30:39.948Z,49.90
2022-12-22T15:33:16.581Z,57.70
2022-12-22T15:35:45.184Z,49.40
2022-12-22T15:38:19.169Z,53.30
2022-12-22T15:40:47.749Z,47.50
2022-12-22T15:43:55.218Z,46.70
2022-12-22T15:46:07.061Z,48.90
2022-12-22T15:48:38.574Z,48.90
2022-12-22T15:51:21.122Z,44.40
2022-12-22T15:53:50.306Z,41.60
2022-12-22T15:56:21.778Z,50.60
2022-12-22T15:58:49.969Z,49.50
2022-12-22T16:01:18.297Z,50.50
2022-12-22T16:03:46.708Z,55.50
2022-12-22T16:06:17.698Z,54.60
2022-12-22T16:08:52.035Z,53.90
2022-12-22T16:11:20.420Z,51.10
2022-12-22T16:13:50.445Z,57.40
2022-12-22T16:16:18.604Z,43.30
2022-12-22T16:18:46.739Z,57.30
2022-12-22T16:21:18.614Z,49.70
2022-12-22T16:23:49.462Z,45.80
2022-12-22T16:26:20.945Z,41.30
2022-12-22T16:28:49.215Z,44.40
2022-12-22T16:31:22.413Z,54.30
2022-12-22T16:33:50.990Z,60.40
2022-12-22T16:36:19.191Z,67.80
2022-12-22T16:38:48.095Z,51.70
2022-12-22T16:41:22.049Z,50.20
2022-12-22T16:43:51.018Z,44.00
2022-12-22T16:46:22.377Z,58.50
2022-12-22T16:48:54.792Z,47.80
2022-12-22T16:51:26.700Z,46.40
2022-12-22T16:53:54.655Z,45.90
2022-12-22T16:56:28.234Z,50.20
2022-12-22T16:58:57.317Z,51.80
2022-12-22T17:01:31.440Z,49.30
2022-12-22T17:04:05.648Z,56.20
2022-12-22T17:06:35.271Z,60.50
2022-12-22T17:09:07.310Z,60.30
2022-12-22T17:11:37.370Z,63.20
2022-12-22T17:14:16.824Z,59.10
2022-12-22T17:19:13.291Z,78.30
2022-12-22T17:21:41.267Z,57.20
2022-12-22T17:24:14.090Z,70.50
2022-12-22T17:26:42.663Z,81.70
2022-12-22T17:29:17.309Z,67.10
2022-12-22T17:31:45.445Z,63.70
2022-12-22T17:34:16.753Z,77.80
2022-12-22T17:36:47.560Z,74.80
2022-12-22T17:39:18.771Z,77.00
2022-12-22T17:41:54.045Z,73.80
2022-12-22T17:44:26.797Z,70.60
2022-12-22T17:46:55.308Z,68.40
2022-12-22T17:49:23.576Z,59.30
2022-12-22T17:51:51.652Z,53.30
2022-12-22T17:54:25.898Z,50.70
2022-12-22T17:56:59.602Z,56.80
2022-12-22T17:59:27.743Z,54.60
2022-12-22T18:01:56.117Z,62.50
2022-12-22T18:04:24.159Z,61.10
2022-12-22T18:06:52.259Z,50.60
2022-12-22T18:09:26.599Z,62.60
2022-12-22T18:11:54.646Z,64.60
2022-12-22T18:14:23.219Z,56.20
2022-12-22T18:16:51.402Z,67.50
2022-12-22T18:19:19.580Z,60.60
2022-12-22T18:21:48.375Z,66.10
2022-12-22T18:24:18.845Z,56.80
2022-12-22T18:26:47.584Z,51.60
2022-12-22T18:29:16.824Z,47.20
2022-12-22T18:31:45.481Z,51.30
2022-12-22T18:34:13.843Z,54.90
2022-12-22T18:36:44.196Z,52.20
2022-12-22T18:39:21.705Z,45.70
2022-12-22T18:41:49.753Z,50.70
2022-12-22T18:44:19.198Z,42.20
2022-12-22T18:46:48.761Z,51.00
2022-12-22T18:49:17.381Z,47.00
2022-12-22T18:51:46.088Z,46.30
2022-12-22T18:54:31.385Z,47.60
2022-12-22T18:56:59.503Z,48.90
2022-12-22T18:59:28.594Z,52.70
2022-12-22T19:02:02.800Z,52.10
2022-12-22T19:04:30.969Z,45.60
2022-12-22T19:06:58.920Z,41.10
2022-12-22T19:09:27.405Z,39.10
2022-12-22T19:11:55.475Z,39.00
2022-12-22T19:14:23.596Z,40.70
2022-12-22T19:16:54.779Z,39.90
2022-12-22T19:19:22.972Z,31.80
2022-12-22T19:21:51.236Z,27.90
2022-12-22T19:24:19.218Z,39.30
2022-12-22T19:26:47.318Z,35.90
2022-12-22T19:29:15.613Z,30.50
2022-12-22T19:31:44.448Z,38.00
2022-12-22T19:34:19.942Z,41.00
2022-12-22T19:36:48.121Z,50.10
2022-12-22T19:39:16.428Z,49.40
2022-12-22T19:41:51.367Z,59.90
2022-12-22T19:44:26.528Z,58.30
2022-12-22T19:46:59.215Z,46.10
2022-12-22T19:49:29.141Z,41.00
2022-12-22T19:51:57.940Z,42.00
2022-12-22T19:54:26.003Z,51.20
2022-12-22T19:56:56.105Z,43.90
2022-12-22T19:59:41.455Z,48.70
2022-12-22T20:02:24.753Z,37.40
2022-12-22T20:04:54.690Z,36.70
2022-12-22T20:07:25.166Z,35.90
2022-12-22T20:09:53.862Z,37.40
2022-12-22T20:12:29.809Z,44.00
2022-12-22T20:14:58.311Z,43.00
2022-12-22T20:17:26.314Z,51.20
2022-12-22T20:19:54.454Z,40.80
2022-12-22T20:22:23.322Z,53.60
2022-12-22T20:24:51.517Z,37.20
2022-12-22T20:27:23.438Z,25.30
2022-12-22T20:29:51.572Z,36.00
2022-12-22T20:32:27.345Z,38.40
2022-12-22T20:34:56.577Z,34.30
2022-12-22T20:37:25.524Z,29.50
2022-12-22T20:39:53.552Z,36.50
2022-12-22T20:42:23.867Z,42.20
2022-12-22T20:45:03.319Z,49.00
2022-12-22T20:47:34.303Z,45.90
2022-12-22T20:50:02.420Z,54.30
2022-12-22T20:52:30.387Z,46.40
2022-12-22T20:54:59.083Z,44.80
2022-12-22T20:57:27.980Z,50.90
2022-12-22T20:59:56.876Z,45.90
2022-12-22T21:02:29.771Z,42.50
2022-12-22T21:04:58.441Z,39.40
2022-12-22T21:07:26.519Z,42.20
2022-12-22T21:09:55.912Z,43.10
2022-12-22T21:12:23.979Z,42.40
2022-12-22T21:14:52.461Z,53.60
2022-12-22T21:17:20.767Z,58.80
2022-12-22T21:19:48.781Z,59.70
2022-12-22T21:22:16.645Z,59.10
2022-12-22T21:24:44.818Z,64.00
2022-12-22T21:27:20.458Z,63.90
2022-12-22T21:29:48.513Z,68.20
2022-12-22T21:32:16.983Z,59.10
2022-12-22T21:34:45.134Z,61.90
2022-12-22T21:37:17.310Z,67.50
2022-12-22T21:39:45.675Z,66.00
2022-12-22T21:42:18.787Z,70.50
2022-12-22T21:44:47.347Z,72.70
2022-12-22T21:47:18.373Z,74.10
2022-12-22T21:49:46.970Z,73.00
2022-12-22T21:52:15.156Z,72.90
2022-12-22T21:54:43.226Z,78.20
2022-12-22T21:57:16.296Z,80.90
2022-12-22T21:59:44.274Z,82.20
2022-12-22T22:02:17.716Z,81.20
2022-12-22T22:04:53.728Z,68.70
2022-12-22T22:07:22.991Z,74.40
2022-12-22T22:09:50.961Z,71.60
2022-12-22T22:12:34.066Z,62.10
2022-12-22T22:15:07.543Z,69.10
2022-12-22T22:17:35.630Z,71.40
2022-12-22T22:20:05.927Z,70.50
2022-12-22T22:22:34.211Z,44.50
2022-12-22T22:25:02.479Z,55.40
2022-12-22T22:27:30.556Z,65.80
2022-12-22T22:29:58.847Z,64.20
2022-12-22T22:32:27.009Z,62.40
2022-12-22T22:34:55.100Z,58.50
2022-12-22T22:37:23.151Z,46.10
2022-12-22T22:39:51.231Z,59.10
2022-12-22T22:42:19.403Z,56.50
2022-12-22T22:44:47.482Z,72.50
2022-12-22T22:47:16.070Z,51.10
2022-12-22T22:49:50.080Z,68.30
2022-12-22T22:52:18.530Z,67.30
2022-12-22T22:54:46.666Z,58.50
2022-12-22T22:57:16.041Z,62.40
2022-12-22T22:59:43.864Z,65.80
2022-12-22T23:02:12.193Z,74.40
2022-12-22T23:04:40.487Z,70.00
2022-12-22T23:07:08.613Z,68.90
2022-12-22T23:09:36.643Z,64.30
2022-12-22T23:12:05.319Z,65.20
2022-12-22T23:14:33.176Z,65.20
2022-12-22T23:17:01.160Z,56.70
2022-12-22T23:19:29.551Z,64.10
2022-12-22T23:21:57.711Z,61.80
2022-12-22T23:24:25.754Z,58.00
2022-12-22T23:26:53.956Z,60.10
2022-12-22T23:29:21.895Z,66.00
2022-12-22T23:31:50.051Z,57.90
2022-12-22T23:34:18.212Z,52.30
2022-12-22T23:36:46.141Z,58.70
2022-12-22T23:39:14.314Z,51.70
2022-12-22T23:41:42.480Z,77.40
2022-12-22T23:44:10.531Z,68.60
2022-12-22T23:46:39.436Z,71.00
2022-12-22T23:49:10.800Z,70.70
2022-12-22T23:51:38.760Z,57.70
2022-12-22T23:54:07.521Z,67.10
2022-12-22T23:56:35.730Z,66.60
2022-12-22T23:59:03.856Z,68.40
